Impacts TAF Board
For situational awareness. Not to be used for flight planning purposes.
IDs:

KDHT - Dalhart Muni, TX, US

Issued at 1755 UTC 02 Aug 2021
Updated at 2113 UTC 02 Aug 2021
Potential Impact None Slight Moderate High
Time2053Z 02/22Z 02/23Z 03/00Z 03/01Z 03/02Z 03/03Z 03/04Z 03/05Z 03/06Z 03/07Z 03/08Z 03/09Z 03/10Z>>
Type OBS PRVL PRVL PRVL PRVL PRVL PRVL PRVL PRVL PRVL PRVL PRVL PRVL PRVL
VIS 6 6 6 6 6 6 6 6 >6 >6 >6 >6 >6 >6
CIG -- -- -- -- -- -- -- -- 250 250 250 -- -- --
Cover CLR FEW FEW FEW FEW FEW FEW FEW BKN BKN BKN SCT SCT SCT
FltCat VFR VFR VFR VFR VFR VFR VFR VFR VFR VFR VFR VFR VFR VFR
WX HZ HZ HZ HZ HZ HZ HZ HZ -- -- -- -- -- --
WDir 100 150 150 150 150 150 150 150 150 150 150 170 170 170
WSpd 7 5 5 5 5 5 5 5 8 8 8 7 7 7
WGst -- -- -- -- -- -- -- -- -- -- -- -- -- --
Raw TAF
KDHT 021755Z 0218/0318 15005KT 6SM HZ FEW250
  FM030500 15008KT P6SM BKN250
  FM030800 17007KT P6SM SCT200


Raw METAR
KDHT 022053Z AUTO 10007KT 6SM HZ CLR 27/12 A3024 RMK AO2 SLP191 T02720122 58022
KDHT 021953Z AUTO 08007KT 6SM HZ SCT080 26/12 A3027 RMK AO2 SLP201 T02610122
KDHT 021853Z AUTO 10004KT 6SM HZ FEW060 26/12 A3030 RMK AO2 SLP210 T02610117

METAR Board
Radar Display
Forecast Discussion
For situational awareness. Not to be used for flight planning purposes.